sensor_id;sensor_type;location;lat;lon;timestamp;P1;durP1;ratioP1;P2;durP2;ratioP2
59587;SDS011;45412;54.472;18.464;2023-11-21T00:01:07;14.80;;;6.30;;
59587;SDS011;45412;54.472;18.464;2023-11-21T00:03:56;13.60;;;5.80;;
59587;SDS011;45412;54.472;18.464;2023-11-21T00:06:45;15.00;;;5.60;;
59587;SDS011;45412;54.472;18.464;2023-11-21T00:09:34;11.00;;;5.00;;
59587;SDS011;45412;54.472;18.464;2023-11-21T00:12:24;12.30;;;5.80;;
59587;SDS011;45412;54.472;18.464;2023-11-21T00:15:12;11.80;;;5.00;;
59587;SDS011;45412;54.472;18.464;2023-11-21T00:18:00;10.90;;;4.80;;
59587;SDS011;45412;54.472;18.464;2023-11-21T00:20:48;14.00;;;6.30;;
59587;SDS011;45412;54.472;18.464;2023-11-21T00:23:37;14.30;;;5.90;;
59587;SDS011;45412;54.472;18.464;2023-11-21T00:26:25;13.20;;;5.70;;
59587;SDS011;45412;54.472;18.464;2023-11-21T00:29:18;13.50;;;6.10;;
59587;SDS011;45412;54.472;18.464;2023-11-21T00:32:07;13.00;;;4.90;;
59587;SDS011;45412;54.472;18.464;2023-11-21T00:34:55;12.60;;;4.80;;
59587;SDS011;45412;54.472;18.464;2023-11-21T00:37:44;11.20;;;4.30;;
59587;SDS011;45412;54.472;18.464;2023-11-21T00:40:32;11.70;;;5.00;;
59587;SDS011;45412;54.472;18.464;2023-11-21T00:43:24;12.20;;;5.20;;
59587;SDS011;45412;54.472;18.464;2023-11-21T00:46:12;10.30;;;4.50;;
59587;SDS011;45412;54.472;18.464;2023-11-21T00:49:01;9.70;;;4.40;;
59587;SDS011;45412;54.472;18.464;2023-11-21T00:51:52;10.40;;;4.60;;
59587;SDS011;45412;54.472;18.464;2023-11-21T00:54:40;9.30;;;4.10;;
59587;SDS011;45412;54.472;18.464;2023-11-21T00:57:28;12.70;;;4.80;;
59587;SDS011;45412;54.472;18.464;2023-11-21T01:00:17;10.40;;;4.50;;
59587;SDS011;45412;54.472;18.464;2023-11-21T01:03:05;13.60;;;5.20;;
59587;SDS011;45412;54.472;18.464;2023-11-21T01:05:55;13.40;;;5.00;;
59587;SDS011;45412;54.472;18.464;2023-11-21T01:08:44;11.00;;;4.60;;
59587;SDS011;45412;54.472;18.464;2023-11-21T01:11:32;11.20;;;4.70;;
59587;SDS011;45412;54.472;18.464;2023-11-21T01:14:23;11.30;;;4.80;;
59587;SDS011;45412;54.472;18.464;2023-11-21T01:17:11;10.30;;;4.40;;
59587;SDS011;45412;54.472;18.464;2023-11-21T01:19:59;9.20;;;4.00;;
59587;SDS011;45412;54.472;18.464;2023-11-21T01:22:48;9.80;;;4.10;;
59587;SDS011;45412;54.472;18.464;2023-11-21T01:25:38;10.80;;;4.20;;
59587;SDS011;45412;54.472;18.464;2023-11-21T01:28:26;9.30;;;3.90;;
59587;SDS011;45412;54.472;18.464;2023-11-21T01:31:15;10.90;;;4.20;;
59587;SDS011;45412;54.472;18.464;2023-11-21T01:34:04;11.40;;;4.70;;
59587;SDS011;45412;54.472;18.464;2023-11-21T01:36:52;10.70;;;4.10;;
59587;SDS011;45412;54.472;18.464;2023-11-21T01:39:40;9.90;;;4.00;;
59587;SDS011;45412;54.472;18.464;2023-11-21T01:42:28;9.80;;;4.10;;
59587;SDS011;45412;54.472;18.464;2023-11-21T01:45:16;9.60;;;3.40;;
59587;SDS011;45412;54.472;18.464;2023-11-21T01:48:04;9.40;;;3.70;;
59587;SDS011;45412;54.472;18.464;2023-11-21T01:50:54;9.70;;;3.90;;
59587;SDS011;45412;54.472;18.464;2023-11-21T01:53:42;8.90;;;3.80;;
59587;SDS011;45412;54.472;18.464;2023-11-21T01:56:32;10.50;;;3.80;;
59587;SDS011;45412;54.472;18.464;2023-11-21T01:59:20;9.90;;;4.20;;
59587;SDS011;45412;54.472;18.464;2023-11-21T02:02:10;10.60;;;4.20;;
59587;SDS011;45412;54.472;18.464;2023-11-21T02:04:57;9.70;;;3.90;;
59587;SDS011;45412;54.472;18.464;2023-11-21T02:07:46;9.40;;;4.00;;
59587;SDS011;45412;54.472;18.464;2023-11-21T02:10:37;9.80;;;3.80;;
59587;SDS011;45412;54.472;18.464;2023-11-21T02:13:25;10.40;;;4.20;;
59587;SDS011;45412;54.472;18.464;2023-11-21T02:16:13;10.70;;;3.70;;
59587;SDS011;45412;54.472;18.464;2023-11-21T02:19:02;9.10;;;3.70;;
59587;SDS011;45412;54.472;18.464;2023-11-21T02:21:57;8.30;;;3.00;;
59587;SDS011;45412;54.472;18.464;2023-11-21T02:24:51;9.10;;;3.20;;
59587;SDS011;45412;54.472;18.464;2023-11-21T02:27:40;9.90;;;3.80;;
59587;SDS011;45412;54.472;18.464;2023-11-21T02:30:27;8.20;;;3.60;;
59587;SDS011;45412;54.472;18.464;2023-11-21T02:33:17;8.90;;;4.00;;
59587;SDS011;45412;54.472;18.464;2023-11-21T02:36:08;8.70;;;3.60;;
59587;SDS011;45412;54.472;18.464;2023-11-21T02:38:56;9.00;;;3.90;;
59587;SDS011;45412;54.472;18.464;2023-11-21T02:41:44;9.60;;;3.90;;
59587;SDS011;45412;54.472;18.464;2023-11-21T02:44:32;9.80;;;4.00;;
59587;SDS011;45412;54.472;18.464;2023-11-21T02:47:19;8.80;;;3.70;;
59587;SDS011;45412;54.472;18.464;2023-11-21T02:50:08;11.40;;;4.40;;
59587;SDS011;45412;54.472;18.464;2023-11-21T02:52:56;10.40;;;3.60;;
59587;SDS011;45412;54.472;18.464;2023-11-21T02:55:45;10.60;;;3.70;;
59587;SDS011;45412;54.472;18.464;2023-11-21T02:58:33;9.60;;;3.70;;
59587;SDS011;45412;54.472;18.464;2023-11-21T03:01:20;10.20;;;4.10;;
59587;SDS011;45412;54.472;18.464;2023-11-21T03:04:08;10.50;;;4.20;;
59587;SDS011;45412;54.472;18.464;2023-11-21T03:06:56;10.50;;;4.70;;
59587;SDS011;45412;54.472;18.464;2023-11-21T03:09:45;10.40;;;3.90;;
59587;SDS011;45412;54.472;18.464;2023-11-21T03:12:35;10.30;;;4.40;;
59587;SDS011;45412;54.472;18.464;2023-11-21T03:15:23;10.00;;;3.90;;
59587;SDS011;45412;54.472;18.464;2023-11-21T03:18:12;10.70;;;3.70;;
59587;SDS011;45412;54.472;18.464;2023-11-21T03:21:00;10.50;;;4.00;;
59587;SDS011;45412;54.472;18.464;2023-11-21T03:23:48;11.80;;;3.80;;
59587;SDS011;45412;54.472;18.464;2023-11-21T03:26:36;10.30;;;4.40;;
59587;SDS011;45412;54.472;18.464;2023-11-21T03:29:25;11.80;;;4.80;;
59587;SDS011;45412;54.472;18.464;2023-11-21T03:32:13;10.50;;;4.40;;
59587;SDS011;45412;54.472;18.464;2023-11-21T03:35:01;9.60;;;4.00;;
59587;SDS011;45412;54.472;18.464;2023-11-21T03:37:49;10.20;;;3.70;;
59587;SDS011;45412;54.472;18.464;2023-11-21T03:40:37;10.20;;;4.20;;
59587;SDS011;45412;54.472;18.464;2023-11-21T03:43:27;9.40;;;3.60;;
59587;SDS011;45412;54.472;18.464;2023-11-21T03:46:15;9.20;;;3.60;;
59587;SDS011;45412;54.472;18.464;2023-11-21T03:49:03;10.50;;;4.10;;
59587;SDS011;45412;54.472;18.464;2023-11-21T03:51:50;11.10;;;4.00;;
59587;SDS011;45412;54.472;18.464;2023-11-21T03:54:38;9.10;;;3.80;;
59587;SDS011;45412;54.472;18.464;2023-11-21T03:57:28;10.20;;;4.70;;
59587;SDS011;45412;54.472;18.464;2023-11-21T04:00:16;10.40;;;4.40;;
59587;SDS011;45412;54.472;18.464;2023-11-21T04:03:04;9.60;;;3.70;;
59587;SDS011;45412;54.472;18.464;2023-11-21T04:05:52;9.60;;;4.20;;
59587;SDS011;45412;54.472;18.464;2023-11-21T04:08:40;11.40;;;4.30;;
59587;SDS011;45412;54.472;18.464;2023-11-21T04:11:28;9.50;;;4.20;;
59587;SDS011;45412;54.472;18.464;2023-11-21T04:14:18;11.20;;;4.20;;
59587;SDS011;45412;54.472;18.464;2023-11-21T04:17:07;10.00;;;4.50;;
59587;SDS011;45412;54.472;18.464;2023-11-21T04:19:54;10.40;;;3.90;;
59587;SDS011;45412;54.472;18.464;2023-11-21T04:22:44;10.30;;;4.20;;
59587;SDS011;45412;54.472;18.464;2023-11-21T04:25:32;8.40;;;3.70;;
59587;SDS011;45412;54.472;18.464;2023-11-21T04:28:20;9.40;;;3.80;;
59587;SDS011;45412;54.472;18.464;2023-11-21T04:31:08;11.00;;;4.00;;
59587;SDS011;45412;54.472;18.464;2023-11-21T04:33:55;12.10;;;3.90;;
59587;SDS011;45412;54.472;18.464;2023-11-21T04:36:43;10.60;;;4.50;;
59587;SDS011;45412;54.472;18.464;2023-11-21T04:39:31;11.20;;;4.30;;
59587;SDS011;45412;54.472;18.464;2023-11-21T04:42:19;9.10;;;3.90;;
59587;SDS011;45412;54.472;18.464;2023-11-21T04:45:08;11.80;;;4.00;;
59587;SDS011;45412;54.472;18.464;2023-11-21T04:47:57;10.20;;;3.80;;
59587;SDS011;45412;54.472;18.464;2023-11-21T04:50:45;8.70;;;3.60;;
59587;SDS011;45412;54.472;18.464;2023-11-21T04:53:33;8.90;;;3.80;;
59587;SDS011;45412;54.472;18.464;2023-11-21T04:56:21;8.30;;;3.40;;
59587;SDS011;45412;54.472;18.464;2023-11-21T04:59:09;9.20;;;4.00;;
59587;SDS011;45412;54.472;18.464;2023-11-21T05:01:57;11.40;;;4.40;;
59587;SDS011;45412;54.472;18.464;2023-11-21T05:04:45;9.00;;;3.50;;
59587;SDS011;45412;54.472;18.464;2023-11-21T05:07:33;8.00;;;3.40;;
59587;SDS011;45412;54.472;18.464;2023-11-21T05:10:23;10.00;;;3.90;;
59587;SDS011;45412;54.472;18.464;2023-11-21T05:13:11;9.90;;;4.20;;
59587;SDS011;45412;54.472;18.464;2023-11-21T05:15:59;8.70;;;4.00;;
59587;SDS011;45412;54.472;18.464;2023-11-21T05:18:46;9.70;;;4.40;;
59587;SDS011;45412;54.472;18.464;2023-11-21T05:21:34;9.80;;;4.40;;
59587;SDS011;45412;54.472;18.464;2023-11-21T05:24:23;9.70;;;4.10;;
59587;SDS011;45412;54.472;18.464;2023-11-21T05:27:10;10.80;;;4.60;;
59587;SDS011;45412;54.472;18.464;2023-11-21T05:30:00;10.00;;;4.10;;
59587;SDS011;45412;54.472;18.464;2023-11-21T05:32:53;9.80;;;4.00;;
59587;SDS011;45412;54.472;18.464;2023-11-21T05:35:41;12.50;;;4.50;;
59587;SDS011;45412;54.472;18.464;2023-11-21T05:38:29;12.90;;;5.20;;
59587;SDS011;45412;54.472;18.464;2023-11-21T05:41:17;11.30;;;5.00;;
59587;SDS011;45412;54.472;18.464;2023-11-21T05:44:05;12.70;;;5.20;;
59587;SDS011;45412;54.472;18.464;2023-11-21T05:46:53;12.00;;;5.00;;
59587;SDS011;45412;54.472;18.464;2023-11-21T05:49:41;11.30;;;5.30;;
59587;SDS011;45412;54.472;18.464;2023-11-21T05:52:29;12.70;;;6.10;;
59587;SDS011;45412;54.472;18.464;2023-11-21T05:55:17;12.70;;;5.70;;
59587;SDS011;45412;54.472;18.464;2023-11-21T05:58:05;11.80;;;4.90;;
59587;SDS011;45412;54.472;18.464;2023-11-21T06:00:54;10.40;;;4.90;;
59587;SDS011;45412;54.472;18.464;2023-11-21T06:03:41;11.80;;;4.50;;
59587;SDS011;45412;54.472;18.464;2023-11-21T06:06:30;9.90;;;4.00;;
59587;SDS011;45412;54.472;18.464;2023-11-21T06:09:18;10.00;;;4.10;;
59587;SDS011;45412;54.472;18.464;2023-11-21T06:12:07;11.00;;;4.40;;
59587;SDS011;45412;54.472;18.464;2023-11-21T06:14:55;11.80;;;4.80;;
59587;SDS011;45412;54.472;18.464;2023-11-21T06:17:43;10.40;;;4.60;;
59587;SDS011;45412;54.472;18.464;2023-11-21T06:20:31;12.20;;;4.70;;
59587;SDS011;45412;54.472;18.464;2023-11-21T06:23:19;10.30;;;4.20;;
59587;SDS011;45412;54.472;18.464;2023-11-21T06:26:07;9.70;;;3.70;;
59587;SDS011;45412;54.472;18.464;2023-11-21T06:28:56;9.50;;;4.00;;
59587;SDS011;45412;54.472;18.464;2023-11-21T06:31:44;8.70;;;3.60;;
59587;SDS011;45412;54.472;18.464;2023-11-21T06:34:34;10.00;;;3.80;;
59587;SDS011;45412;54.472;18.464;2023-11-21T06:37:22;9.10;;;3.60;;
59587;SDS011;45412;54.472;18.464;2023-11-21T06:40:10;8.20;;;2.90;;
59587;SDS011;45412;54.472;18.464;2023-11-21T06:43:01;8.90;;;3.10;;
59587;SDS011;45412;54.472;18.464;2023-11-21T06:45:49;7.70;;;3.60;;
59587;SDS011;45412;54.472;18.464;2023-11-21T06:48:36;8.60;;;3.30;;
59587;SDS011;45412;54.472;18.464;2023-11-21T06:51:25;8.40;;;3.60;;
59587;SDS011;45412;54.472;18.464;2023-11-21T06:54:13;9.20;;;3.60;;
59587;SDS011;45412;54.472;18.464;2023-11-21T06:57:02;9.20;;;3.80;;
59587;SDS011;45412;54.472;18.464;2023-11-21T06:59:50;8.10;;;3.30;;
59587;SDS011;45412;54.472;18.464;2023-11-21T07:02:38;10.20;;;3.50;;
59587;SDS011;45412;54.472;18.464;2023-11-21T07:05:27;8.40;;;3.30;;
59587;SDS011;45412;54.472;18.464;2023-11-21T07:08:15;7.30;;;2.80;;
59587;SDS011;45412;54.472;18.464;2023-11-21T07:11:03;9.00;;;3.30;;
59587;SDS011;45412;54.472;18.464;2023-11-21T07:13:51;9.00;;;3.60;;
59587;SDS011;45412;54.472;18.464;2023-11-21T07:16:39;9.00;;;2.90;;
59587;SDS011;45412;54.472;18.464;2023-11-21T07:19:28;7.90;;;3.40;;
59587;SDS011;45412;54.472;18.464;2023-11-21T07:22:16;8.90;;;2.90;;
59587;SDS011;45412;54.472;18.464;2023-11-21T07:25:09;7.50;;;2.90;;
59587;SDS011;45412;54.472;18.464;2023-11-21T07:27:57;9.20;;;3.50;;
59587;SDS011;45412;54.472;18.464;2023-11-21T07:30:45;8.30;;;3.10;;
59587;SDS011;45412;54.472;18.464;2023-11-21T07:33:33;7.00;;;2.60;;
59587;SDS011;45412;54.472;18.464;2023-11-21T07:36:21;8.30;;;2.90;;
59587;SDS011;45412;54.472;18.464;2023-11-21T07:39:08;7.40;;;2.90;;
59587;SDS011;45412;54.472;18.464;2023-11-21T07:41:57;7.40;;;3.00;;
59587;SDS011;45412;54.472;18.464;2023-11-21T07:44:45;7.10;;;2.70;;
59587;SDS011;45412;54.472;18.464;2023-11-21T07:47:34;7.80;;;2.50;;
59587;SDS011;45412;54.472;18.464;2023-11-21T07:50:22;7.10;;;2.20;;
59587;SDS011;45412;54.472;18.464;2023-11-21T07:53:10;7.00;;;2.50;;
59587;SDS011;45412;54.472;18.464;2023-11-21T07:56:02;7.50;;;3.00;;
59587;SDS011;45412;54.472;18.464;2023-11-21T07:58:51;7.80;;;2.50;;
59587;SDS011;45412;54.472;18.464;2023-11-21T08:01:41;8.80;;;2.50;;
59587;SDS011;45412;54.472;18.464;2023-11-21T08:04:30;6.70;;;2.20;;
59587;SDS011;45412;54.472;18.464;2023-11-21T08:07:21;8.50;;;2.80;;
59587;SDS011;45412;54.472;18.464;2023-11-21T08:10:09;7.30;;;2.90;;
59587;SDS011;45412;54.472;18.464;2023-11-21T08:12:57;6.20;;;2.10;;
59587;SDS011;45412;54.472;18.464;2023-11-21T08:15:45;8.60;;;2.80;;
59587;SDS011;45412;54.472;18.464;2023-11-21T08:18:34;8.40;;;2.70;;
59587;SDS011;45412;54.472;18.464;2023-11-21T08:21:23;6.70;;;2.40;;
59587;SDS011;45412;54.472;18.464;2023-11-21T08:24:16;8.40;;;2.90;;
59587;SDS011;45412;54.472;18.464;2023-11-21T08:27:04;7.40;;;2.80;;
59587;SDS011;45412;54.472;18.464;2023-11-21T08:29:52;7.90;;;2.60;;
59587;SDS011;45412;54.472;18.464;2023-11-21T08:32:40;7.30;;;2.70;;
59587;SDS011;45412;54.472;18.464;2023-11-21T08:35:28;6.50;;;2.80;;
59587;SDS011;45412;54.472;18.464;2023-11-21T08:38:16;8.40;;;3.10;;
59587;SDS011;45412;54.472;18.464;2023-11-21T08:41:05;10.20;;;2.70;;
59587;SDS011;45412;54.472;18.464;2023-11-21T08:43:58;7.20;;;2.40;;
59587;SDS011;45412;54.472;18.464;2023-11-21T08:46:45;6.60;;;2.60;;
59587;SDS011;45412;54.472;18.464;2023-11-21T08:49:34;7.30;;;2.60;;
59587;SDS011;45412;54.472;18.464;2023-11-21T08:52:22;7.50;;;2.50;;
59587;SDS011;45412;54.472;18.464;2023-11-21T08:55:10;6.80;;;2.40;;
59587;SDS011;45412;54.472;18.464;2023-11-21T08:58:00;8.00;;;2.90;;
59587;SDS011;45412;54.472;18.464;2023-11-21T09:00:48;8.90;;;2.50;;
59587;SDS011;45412;54.472;18.464;2023-11-21T09:03:37;7.50;;;2.60;;
59587;SDS011;45412;54.472;18.464;2023-11-21T09:06:25;7.20;;;2.30;;
59587;SDS011;45412;54.472;18.464;2023-11-21T09:09:13;7.00;;;2.40;;
59587;SDS011;45412;54.472;18.464;2023-11-21T09:12:01;6.20;;;2.10;;
59587;SDS011;45412;54.472;18.464;2023-11-21T09:14:49;7.50;;;2.60;;
59587;SDS011;45412;54.472;18.464;2023-11-21T09:17:37;8.40;;;2.50;;
59587;SDS011;45412;54.472;18.464;2023-11-21T09:20:26;7.10;;;2.00;;
59587;SDS011;45412;54.472;18.464;2023-11-21T09:23:14;6.40;;;2.20;;
59587;SDS011;45412;54.472;18.464;2023-11-21T09:26:03;6.40;;;2.30;;
59587;SDS011;45412;54.472;18.464;2023-11-21T09:28:52;9.00;;;3.00;;
59587;SDS011;45412;54.472;18.464;2023-11-21T09:31:40;9.80;;;3.00;;
59587;SDS011;45412;54.472;18.464;2023-11-21T09:34:29;8.10;;;2.90;;
59587;SDS011;45412;54.472;18.464;2023-11-21T09:37:18;7.20;;;2.40;;
59587;SDS011;45412;54.472;18.464;2023-11-21T09:40:09;7.30;;;2.50;;
59587;SDS011;45412;54.472;18.464;2023-11-21T09:43:01;7.20;;;2.70;;
59587;SDS011;45412;54.472;18.464;2023-11-21T09:46:04;6.00;;;2.00;;
59587;SDS011;45412;54.472;18.464;2023-11-21T09:48:58;7.60;;;2.80;;
59587;SDS011;45412;54.472;18.464;2023-11-21T09:51:49;6.50;;;2.10;;
59587;SDS011;45412;54.472;18.464;2023-11-21T09:54:38;7.60;;;2.20;;
59587;SDS011;45412;54.472;18.464;2023-11-21T09:57:27;7.00;;;2.60;;
59587;SDS011;45412;54.472;18.464;2023-11-21T10:00:16;7.60;;;2.90;;
59587;SDS011;45412;54.472;18.464;2023-11-21T10:03:08;7.20;;;2.80;;
59587;SDS011;45412;54.472;18.464;2023-11-21T10:05:57;9.10;;;2.80;;
59587;SDS011;45412;54.472;18.464;2023-11-21T10:08:48;7.40;;;2.50;;
59587;SDS011;45412;54.472;18.464;2023-11-21T10:11:43;8.30;;;2.50;;
59587;SDS011;45412;54.472;18.464;2023-11-21T10:14:31;9.30;;;3.20;;
59587;SDS011;45412;54.472;18.464;2023-11-21T10:17:19;10.40;;;3.70;;
59587;SDS011;45412;54.472;18.464;2023-11-21T10:20:10;22.90;;;9.40;;
59587;SDS011;45412;54.472;18.464;2023-11-21T10:23:00;13.30;;;5.60;;
59587;SDS011;45412;54.472;18.464;2023-11-21T10:25:52;9.20;;;3.80;;
59587;SDS011;45412;54.472;18.464;2023-11-21T10:28:55;10.20;;;3.60;;
59587;SDS011;45412;54.472;18.464;2023-11-21T10:31:50;7.90;;;2.70;;
59587;SDS011;45412;54.472;18.464;2023-11-21T10:34:39;7.80;;;2.90;;
59587;SDS011;45412;54.472;18.464;2023-11-21T10:37:29;7.20;;;2.40;;
59587;SDS011;45412;54.472;18.464;2023-11-21T10:40:17;8.10;;;3.30;;
59587;SDS011;45412;54.472;18.464;2023-11-21T10:43:08;8.40;;;3.30;;
59587;SDS011;45412;54.472;18.464;2023-11-21T10:45:58;8.10;;;2.70;;
59587;SDS011;45412;54.472;18.464;2023-11-21T10:48:53;7.10;;;2.70;;
59587;SDS011;45412;54.472;18.464;2023-11-21T10:51:43;7.30;;;2.80;;
59587;SDS011;45412;54.472;18.464;2023-11-21T10:54:31;8.00;;;2.60;;
59587;SDS011;45412;54.472;18.464;2023-11-21T10:57:19;7.40;;;2.90;;
59587;SDS011;45412;54.472;18.464;2023-11-21T11:00:11;7.80;;;2.70;;
59587;SDS011;45412;54.472;18.464;2023-11-21T11:03:01;9.00;;;2.80;;
59587;SDS011;45412;54.472;18.464;2023-11-21T11:05:50;7.80;;;2.40;;
59587;SDS011;45412;54.472;18.464;2023-11-21T11:08:40;7.60;;;2.80;;
59587;SDS011;45412;54.472;18.464;2023-11-21T11:11:30;7.70;;;2.80;;
59587;SDS011;45412;54.472;18.464;2023-11-21T11:14:18;8.00;;;2.80;;
59587;SDS011;45412;54.472;18.464;2023-11-21T11:17:07;6.80;;;2.60;;
59587;SDS011;45412;54.472;18.464;2023-11-21T11:19:56;7.50;;;2.90;;
59587;SDS011;45412;54.472;18.464;2023-11-21T11:33:37;7.50;;;2.90;;
59587;SDS011;45412;54.472;18.464;2023-11-21T11:36:41;8.50;;;2.60;;
59587;SDS011;45412;54.472;18.464;2023-11-21T11:39:38;8.20;;;2.70;;
59587;SDS011;45412;54.472;18.464;2023-11-21T11:42:33;6.50;;;2.30;;
59587;SDS011;45412;54.472;18.464;2023-11-21T11:45:23;6.60;;;2.80;;
59587;SDS011;45412;54.472;18.464;2023-11-21T11:48:19;7.60;;;2.80;;
59587;SDS011;45412;54.472;18.464;2023-11-21T11:51:12;7.20;;;2.40;;
59587;SDS011;45412;54.472;18.464;2023-11-21T11:54:08;7.40;;;2.30;;
59587;SDS011;45412;54.472;18.464;2023-11-21T11:56:58;7.80;;;2.80;;
59587;SDS011;45412;54.472;18.464;2023-11-21T12:00:15;7.80;;;2.80;;
59587;SDS011;45412;54.472;18.464;2023-11-21T12:03:09;9.50;;;2.60;;
59587;SDS011;45412;54.472;18.464;2023-11-21T12:05:57;8.30;;;3.10;;
59587;SDS011;45412;54.472;18.464;2023-11-21T12:08:46;8.60;;;3.70;;
59587;SDS011;45412;54.472;18.464;2023-11-21T12:11:34;10.40;;;4.10;;
59587;SDS011;45412;54.472;18.464;2023-11-21T12:14:24;8.50;;;3.30;;
59587;SDS011;45412;54.472;18.464;2023-11-21T12:17:13;8.50;;;3.00;;
59587;SDS011;45412;54.472;18.464;2023-11-21T12:20:03;7.50;;;2.90;;
59587;SDS011;45412;54.472;18.464;2023-11-21T12:22:57;7.50;;;2.80;;
59587;SDS011;45412;54.472;18.464;2023-11-21T12:25:49;6.60;;;2.60;;
59587;SDS011;45412;54.472;18.464;2023-11-21T12:28:37;7.90;;;2.50;;
59587;SDS011;45412;54.472;18.464;2023-11-21T12:31:26;6.70;;;2.50;;
59587;SDS011;45412;54.472;18.464;2023-11-21T12:34:14;6.30;;;2.10;;
59587;SDS011;45412;54.472;18.464;2023-11-21T12:37:02;6.60;;;2.30;;
59587;SDS011;45412;54.472;18.464;2023-11-21T12:39:50;6.80;;;2.50;;
59587;SDS011;45412;54.472;18.464;2023-11-21T12:42:39;8.80;;;2.50;;
59587;SDS011;45412;54.472;18.464;2023-11-21T12:45:32;7.30;;;2.30;;
59587;SDS011;45412;54.472;18.464;2023-11-21T12:48:20;8.30;;;3.10;;
59587;SDS011;45412;54.472;18.464;2023-11-21T12:51:12;10.70;;;5.10;;
59587;SDS011;45412;54.472;18.464;2023-11-21T12:54:01;9.10;;;4.30;;
59587;SDS011;45412;54.472;18.464;2023-11-21T12:56:49;8.50;;;4.80;;
59587;SDS011;45412;54.472;18.464;2023-11-21T12:59:38;7.60;;;3.10;;
59587;SDS011;45412;54.472;18.464;2023-11-21T13:02:27;8.40;;;2.50;;
59587;SDS011;45412;54.472;18.464;2023-11-21T13:05:23;8.00;;;3.20;;
59587;SDS011;45412;54.472;18.464;2023-11-21T13:08:12;8.50;;;3.10;;
59587;SDS011;45412;54.472;18.464;2023-11-21T13:11:01;7.20;;;2.30;;
59587;SDS011;45412;54.472;18.464;2023-11-21T13:13:51;8.20;;;3.10;;
59587;SDS011;45412;54.472;18.464;2023-11-21T13:16:40;8.20;;;2.80;;
59587;SDS011;45412;54.472;18.464;2023-11-21T13:19:34;8.30;;;3.10;;
59587;SDS011;45412;54.472;18.464;2023-11-21T13:22:22;7.30;;;3.00;;
59587;SDS011;45412;54.472;18.464;2023-11-21T13:25:11;8.10;;;3.10;;
59587;SDS011;45412;54.472;18.464;2023-11-21T13:28:02;8.20;;;3.10;;
59587;SDS011;45412;54.472;18.464;2023-11-21T13:30:50;8.60;;;3.30;;
59587;SDS011;45412;54.472;18.464;2023-11-21T13:33:40;7.70;;;3.00;;
59587;SDS011;45412;54.472;18.464;2023-11-21T13:36:30;6.40;;;2.20;;
59587;SDS011;45412;54.472;18.464;2023-11-21T13:39:23;6.70;;;2.10;;
59587;SDS011;45412;54.472;18.464;2023-11-21T13:42:13;8.10;;;2.40;;
59587;SDS011;45412;54.472;18.464;2023-11-21T13:45:03;6.10;;;1.80;;
59587;SDS011;45412;54.472;18.464;2023-11-21T13:47:53;6.20;;;2.20;;
59587;SDS011;45412;54.472;18.464;2023-11-21T13:50:45;7.10;;;2.40;;
59587;SDS011;45412;54.472;18.464;2023-11-21T13:53:47;6.80;;;2.50;;
59587;SDS011;45412;54.472;18.464;2023-11-21T13:56:38;6.30;;;1.60;;
59587;SDS011;45412;54.472;18.464;2023-11-21T13:59:28;6.90;;;1.80;;
59587;SDS011;45412;54.472;18.464;2023-11-21T14:02:17;7.90;;;2.00;;
59587;SDS011;45412;54.472;18.464;2023-11-21T14:05:06;6.70;;;1.90;;
59587;SDS011;45412;54.472;18.464;2023-11-21T14:07:59;6.70;;;1.80;;
59587;SDS011;45412;54.472;18.464;2023-11-21T14:10:51;6.00;;;1.70;;
59587;SDS011;45412;54.472;18.464;2023-11-21T14:13:43;7.10;;;1.90;;
59587;SDS011;45412;54.472;18.464;2023-11-21T14:16:34;6.80;;;2.30;;
59587;SDS011;45412;54.472;18.464;2023-11-21T14:19:40;7.40;;;2.40;;
59587;SDS011;45412;54.472;18.464;2023-11-21T14:22:31;7.00;;;2.40;;
59587;SDS011;45412;54.472;18.464;2023-11-21T14:25:19;7.10;;;2.00;;
59587;SDS011;45412;54.472;18.464;2023-11-21T14:28:07;7.80;;;2.10;;
59587;SDS011;45412;54.472;18.464;2023-11-21T14:30:55;6.80;;;2.40;;
59587;SDS011;45412;54.472;18.464;2023-11-21T14:33:46;7.20;;;2.10;;
59587;SDS011;45412;54.472;18.464;2023-11-21T14:36:35;6.70;;;2.30;;
59587;SDS011;45412;54.472;18.464;2023-11-21T14:39:24;6.70;;;2.30;;
59587;SDS011;45412;54.472;18.464;2023-11-21T14:42:16;7.20;;;2.00;;
59587;SDS011;45412;54.472;18.464;2023-11-21T14:45:11;6.10;;;2.00;;
59587;SDS011;45412;54.472;18.464;2023-11-21T14:48:01;7.50;;;2.80;;
59587;SDS011;45412;54.472;18.464;2023-11-21T14:50:54;7.40;;;2.70;;
59587;SDS011;45412;54.472;18.464;2023-11-21T14:53:51;7.60;;;2.80;;
59587;SDS011;45412;54.472;18.464;2023-11-21T14:56:42;8.80;;;3.10;;
59587;SDS011;45412;54.472;18.464;2023-11-21T14:59:32;7.80;;;2.60;;
59587;SDS011;45412;54.472;18.464;2023-11-21T15:02:20;9.80;;;2.70;;
59587;SDS011;45412;54.472;18.464;2023-11-21T15:05:12;7.20;;;2.70;;
59587;SDS011;45412;54.472;18.464;2023-11-21T15:08:04;7.30;;;2.60;;
59587;SDS011;45412;54.472;18.464;2023-11-21T15:11:09;6.60;;;2.60;;
59587;SDS011;45412;54.472;18.464;2023-11-21T15:14:02;8.00;;;2.70;;
59587;SDS011;45412;54.472;18.464;2023-11-21T15:16:54;9.20;;;3.70;;
59587;SDS011;45412;54.472;18.464;2023-11-21T15:19:47;7.80;;;3.30;;
59587;SDS011;45412;54.472;18.464;2023-11-21T15:22:35;8.20;;;3.20;;
59587;SDS011;45412;54.472;18.464;2023-11-21T15:25:25;9.60;;;2.60;;
59587;SDS011;45412;54.472;18.464;2023-11-21T15:28:13;9.40;;;3.00;;
59587;SDS011;45412;54.472;18.464;2023-11-21T15:31:01;7.20;;;2.90;;
59587;SDS011;45412;54.472;18.464;2023-11-21T15:33:52;7.00;;;2.50;;
59587;SDS011;45412;54.472;18.464;2023-11-21T15:36:43;7.70;;;2.50;;
59587;SDS011;45412;54.472;18.464;2023-11-21T15:39:31;7.70;;;2.70;;
59587;SDS011;45412;54.472;18.464;2023-11-21T15:42:19;7.60;;;2.80;;
59587;SDS011;45412;54.472;18.464;2023-11-21T15:45:07;8.00;;;2.70;;
59587;SDS011;45412;54.472;18.464;2023-11-21T15:47:59;10.70;;;4.40;;
59587;SDS011;45412;54.472;18.464;2023-11-21T15:50:49;11.10;;;3.90;;
59587;SDS011;45412;54.472;18.464;2023-11-21T15:53:43;8.30;;;3.10;;
59587;SDS011;45412;54.472;18.464;2023-11-21T15:56:32;10.40;;;3.80;;
59587;SDS011;45412;54.472;18.464;2023-11-21T15:59:23;13.10;;;4.10;;
59587;SDS011;45412;54.472;18.464;2023-11-21T16:02:16;11.60;;;4.30;;
59587;SDS011;45412;54.472;18.464;2023-11-21T16:05:05;10.20;;;3.60;;
59587;SDS011;45412;54.472;18.464;2023-11-21T16:07:54;10.50;;;3.90;;
59587;SDS011;45412;54.472;18.464;2023-11-21T16:10:42;9.80;;;3.80;;
59587;SDS011;45412;54.472;18.464;2023-11-21T16:13:30;11.50;;;4.10;;
59587;SDS011;45412;54.472;18.464;2023-11-21T16:16:22;11.30;;;3.50;;
59587;SDS011;45412;54.472;18.464;2023-11-21T16:19:09;12.50;;;4.40;;
59587;SDS011;45412;54.472;18.464;2023-11-21T16:21:57;10.80;;;4.30;;
59587;SDS011;45412;54.472;18.464;2023-11-21T16:24:45;16.20;;;6.80;;
59587;SDS011;45412;54.472;18.464;2023-11-21T16:27:33;14.40;;;5.90;;
59587;SDS011;45412;54.472;18.464;2023-11-21T16:30:21;11.30;;;4.70;;
59587;SDS011;45412;54.472;18.464;2023-11-21T16:33:11;10.50;;;4.30;;
59587;SDS011;45412;54.472;18.464;2023-11-21T16:35:59;12.40;;;4.50;;
59587;SDS011;45412;54.472;18.464;2023-11-21T16:38:47;14.20;;;5.80;;
59587;SDS011;45412;54.472;18.464;2023-11-21T16:41:35;13.00;;;4.90;;
59587;SDS011;45412;54.472;18.464;2023-11-21T16:44:23;12.30;;;5.00;;
59587;SDS011;45412;54.472;18.464;2023-11-21T16:47:11;12.50;;;4.90;;
59587;SDS011;45412;54.472;18.464;2023-11-21T16:49:59;10.90;;;3.90;;
59587;SDS011;45412;54.472;18.464;2023-11-21T16:52:47;13.70;;;4.30;;